Aérodrome :
LOGIN :

S'inscrire | Disclaimer

   EN    FR    IT 

 










Légende :    VFR   VFR Marginal   IFR   IFR Intensif   IFR Très Intensif
Visi : 
Plafond : 
>= 8 km
>= 3000ft
5 à 8 km
1000 à 3000 ft
1500m à 5 km
500 à 1000 ft
800 à 1500m
200 à 500 ft
< 800m
< 200 ft
Symboles :   Orages  Brouillard  Fortes neiges  Fortes précipitations  Vent > 20 kt
SIGMETs :   Divers  Orages  Givrage  Turbulence  Onde Orograph.  Cendres Volcan.






- Altitude de l'aérodrome : 142 ft
- Code IATA : ALC


LEAL - Alicante

DERNIER METAR :
  • 120030Z 29012KT 250V320 CAVOK 13/04 Q1012 NOSIG

METARs EXPIRÉS :
  • 120000Z 27012KT 240V300 CAVOK 14/05 Q1012 NOSIG
  • 112330Z 31014KT 270V340 CAVOK 14/05 Q1012 NOSIG
  • 112300Z 30015KT CAVOK 14/06 Q1012 NOSIG
  • 112230Z 30014KT CAVOK 14/06 Q1012 NOSIG
  • 112200Z 29014KT CAVOK 14/06 Q1013 NOSIG
  • 112130Z 29012KT CAVOK 14/06 Q1013 NOSIG

TAF TAF LEAL
Valide du 12 à 00h jusqu'au 13 à 00h UTC


112300Z 1200/1224 31010KT 9999 FEW040 TX19/1213Z TN09/1206Z
PROB30
TEMPO 1200/1211 31012G25KT
TEMPO 1211/1215 20008KT
BECMG 1221/1223 25008KT



MET'MAP, la Météo Aéronautique d'un coup d'oeil ! - Copyright ORBIFLY Décembre 2007 - Disclaimer

ORBIFLY MET'MAP TEAM :

Programmation & Développement : Alexandra Zaïnal
Conception & Développement : Baudouin d'Aumeries
Co-Programmation & Développement : Marc-Olivier Méhu
Soutien technique & logistique : Manuel Goepfert

Contact : metmap@orbifly.com




SOURCES & CREDITS :

   NOAA